METAR Data
IDs: Format: Raw Decoded Include TAF

Data at: 2305 UTC 25 Oct 2021

PATA 252252Z 00000KT 10SM BKN026 OVC037 M02/M04 A2926 RMK AO2 SLP913 T10221044 $
PATA 252152Z 00000KT 10SM OVC026 M03/M04 A2925 RMK AO2 SLP911 I1000 T10281044 $
PATA 252052Z 00000KT 10SM OVC028 M03/M05 A2925 RMK AO2 SLP910 60000 T10281050 50002 $
PATA 252044Z 00000KT 10SM OVC028 M03/M05 A2925 RMK AO2 T10281050 $
PATA 251952Z 00000KT 10SM BKN036 OVC100 M03/M05 A2926 RMK AO2 SLP912 T10331050 $
PATA 251852Z 00000KT 5SM BR OVC036 M04/M06 A2925 RMK AO2 SNB08E32 SLP911 P0000 T10391056 $
PATA 251752Z COR 07003KT 6SM BR BKN042 OVC060 M04/M06 A2925 RMK AO2 4/006 933003 SNE13 SLP908 P0000 60000 T10391061 11033 21039 58005 $
PATA 251700Z 03003KT 3SM -SN BR FEW005 OVC038 M04/M06 A2925 RMK AO2 P0000 T10391056
PATA 251652Z 03003KT 1 3/4SM -SN BR FEW005 OVC038 M04/M06 A2925 RMK AO2 SLP911 P0000 T10391056
PATA 251641Z 00000KT 1 1/2SM -SN BR FEW005 FEW024 OVC037 M04/M06 A2926 RMK AO2 P0000 T10391056 $
PATA 251629Z 00000KT 1 3/4SM -SN BR FEW024 OVC037 M04/M06 A2926 RMK AO2 P0000 T10391056 $
PATA 251617Z 00000KT 4SM -SN BR FEW020 OVC037 M04/M06 A2926 RMK AO2 P0000 T10391056 $
PATA 251609Z 06003KT 2 1/2SM -SN BR SCT020 OVC037 M04/M06 A2926 RMK AO2 P0000 T10391056 $
PATA 251552Z 06003KT 5SM -SN BR BKN019 OVC038 M04/M06 A2926 RMK AO2 SNE12B50 SLP912 P0000 T10391056 $
PATA 251519Z 05003KT 5SM BR SCT005 OVC021 M04/M06 A2926 RMK AO2 SNE12 P0000 T10391056 $
PATA 251510Z 04004KT 4SM -SN BR BKN005 OVC023 M04/M06 A2926 RMK AO2 P0000 T10391056 $
PATA 251452Z 03003KT 2 1/2SM -SN BR BKN005 OVC027 M04/M06 A2926 RMK AO2 SLP913 P0000 60000 T10391056 55005 $
PATA 251423Z 06003KT 2SM -SN BR FEW020 OVC029 M03/M06 A2926 RMK AO2 P0000 T10331056 $
PATA 251400Z 00000KT 4SM -SN BR FEW020 BKN029 OVC043 M03/M06 A2926 RMK AO2 P0000 T10331056 $
PATA 251352Z 00000KT 4SM -SN BR SCT029 BKN034 OVC060 M04/M06 A2926 RMK AO2 SLP913 P0000 T10391056 $
PATA 251343Z AUTO 00000KT 2 1/2SM -SN BR FEW022 BKN031 OVC060 M03/M06 A2926 RMK AO2 P0000 T10331056 TSNO $
PATA 251252Z AUTO 00000KT 1SM -SN BR VV016 M03/M06 A2927 RMK AO2 SLP916 P0000 T10331056 TSNO $
PATA 251152Z AUTO 00000KT 1 1/2SM -SN BR SCT004 OVC021 M03/M05 A2928 RMK AO2 SLP918 P0000 60000 T10331050 11028 21033 58012 TSNO $
PATA 251052Z AUTO 00000KT 1SM -SN BR SCT004 OVC017 M03/M05 A2929 RMK AO2 SLP924 P0000 T10331050 TSNO $
PATA 251019Z AUTO 00000KT 1 3/4SM -SN BR OVC029 M03/M05 A2930 RMK AO2 P0000 T10331050 TSNO $
PATA 250952Z AUTO 12004KT 3SM -SN BR OVC045 M03/M05 A2930 RMK AO2 SLP927 P0000 T10331050 TSNO $
PATA 250935Z AUTO 11003KT 2SM -SN BR OVC030 M03/M05 A2930 RMK AO2 P0000 T10331050 TSNO $
PATA 250923Z AUTO 12003KT 1SM -SN BR VV015 M03/M05 A2931 RMK AO2 P0000 T10331050 TSNO $
PATA 250852Z AUTO 11003KT 3/4SM -SN BR VV012 M03/M05 A2931 RMK AO2 SLP930 P0000 60000 T10331050 410281117 58006 TSNO $
PATA 250846Z AUTO 00000KT 3/4SM -SN BR VV014 M03/M05 A2931 RMK AO2 P0000 TSNO $
PATA 250819Z AUTO 00000KT 1 1/2SM -SN BR BKN024 OVC046 M03/M05 A2932 RMK AO2 P0000 T10331050 TSNO $
PATA 250752Z AUTO 00000KT 2 1/2SM -SN BR FEW004 BKN030 OVC040 M03/M05 A2932 RMK AO2 SLP934 P0000 T10281050 TSNO $
PATA 250705Z AUTO 00000KT 2 1/2SM -SN BR SCT036 OVC047 M03/M05 A2933 RMK AO2 P0000 T10331050 TSNO $
PATA 250652Z AUTO 00000KT 3SM -SN BR FEW032 OVC047 M03/M05 A2933 RMK AO2 SLP937 P0000 T10331050 TSNO $
PATA 250648Z AUTO 00000KT 2 1/2SM -SN BR SCT032 OVC047 M03/M05 A2933 RMK AO2 P0000 TSNO $
PATA 250617Z AUTO 00000KT 3SM -SN BR FEW004 OVC047 M03/M04 A2934 RMK AO2 P0000 T10331044 TSNO $
PATA 250552Z AUTO 00000KT 2 1/2SM -SN BR FEW004 OVC044 M03/M04 A2935 RMK AO2 SLP943 P0000 60000 T10281044 11028 21033 58009 TSNO $
PATA 250509Z 00000KT 2SM -SN BR SCT005 BKN030 OVC046 M03/M04 A2936 RMK AO2 P0000 T10281044 $
PATA 250452Z 00000KT 2 1/2SM -SN BR BKN004 BKN034 OVC045 M03/M04 A2936 RMK AO2 SLP949 P0000 T10281044 $
PATA 250449Z 00000KT 2 1/2SM -SN BR BKN003 BKN034 OVC045 M03/M04 A2936 RMK AO2 P0000 $
PATA 250439Z 00000KT 2 1/2SM -SN BR SCT003 BKN032 OVC045 M03/M04 A2937 RMK AO2 P0000 T10281044 $
PATA 250419Z 00000KT 2SM -SN BR BKN030 OVC045 M03/M04 A2937 RMK AO2 P0000 T10281044 $
PATA 250401Z 00000KT 3SM -SN VCFG FEW003 SCT036 OVC043 M03/M04 A2937 RMK AO2 P0000 T10281044 $
PATA 250352Z 00000KT 1 3/4SM -SN VCFG SCT003 BKN041 OVC050 M03/M04 A2938 RMK AO2 SLP953 P0000 T10281044 $
PATA 250343Z 00000KT 2 1/2SM -SN VCFG FEW003 BKN041 OVC055 M03/M04 A2938 RMK AO2 P0000 T10281044 $
PATA 250334Z 00000KT 4SM -SN BR VCFG BKN036 OVC055 M03/M04 A2938 RMK AO2 P0000 T10331044 $
PATA 250326Z 00000KT 3SM -SN BR VCFG BKN029 OVC055 M03/M04 A2938 RMK AO2 P0000 T10281044 $
PATA 250252Z 00000KT 1 1/2SM -SN BR VCFG FEW000 OVC021 M03/M04 A2939 RMK AO2 SLP960 VCFG NE-E P0000 60000 T10281044 58015 $
PATA 250212Z 00000KT 2 1/2SM -SN BR VCFG FEW000 OVC021 M03/M04 A2940 RMK AO2 VCFG NE-E P0000 T10281044 $
PATA 250152Z 00000KT 1SM -SN BR VCFG FEW000 OVC021 M03/M04 A2941 RMK AO2 SLP965 VCFG NE-E P0000 T10281044 $
PATA 250115Z 00000KT 3/4SM -SN BR VCFG FEW000 OVC004 M03/M04 A2942 RMK AO2 P0000 T10281044 $
PATA 250059Z 00000KT 1 1/2SM -SN BR VCFG OVC003 M03/M04 A2942 RMK AO2 P0000 T10331044 $
PATA 250052Z 23003KT 2SM -SN BR VCFG FEW000 OVC003 M03/M04 A2943 RMK AO2 SNB33 SLP971 VCFG E-SE OVR TOWN AND RIVER P0000 T10331044 $
PATA 250049Z 00000KT 2SM -SN BR VCFG FEW000 OVC003 M03/M04 A2943 RMK AO2 SNB33 VCFG E-SE OVR TOWN AND RIVER P0000 $
PATA 250008Z 00000KT 10SM VCFG FEW000 FEW003 OVC006 M03/M04 A2943 RMK AO2 VCFG E-SE OVR TOWN AND RIVER T10331044 $
PATA 242352Z 00000KT 10SM BCFG FEW000 OVC003 M03/M04 A2944 RMK AO2 SLP975 CLDS OBCG MTNS NW-E W T10331044 11033 21083 58008 $
PATA 242319Z 00000KT 10SM BCFG SCT003 OVC010 M04/M05 A2945 RMK AO2 VCFG E CLDS OBCG MTNS NW-NE T10391050 $
PATA 242252Z 00000KT 10SM BCFG OVC002 M04/M05 A2945 RMK AO2 SLP978 T10391050 $
PATA 242235Z 00000KT 4SM BCFG OVC002 M04/M06 A2945 RMK AO2 T10441056 $
PATA 242212Z 00000KT 1 3/4SM BCFG OVC003 M05/M06 A2946 RMK AO2 T10501056 $
PATA 242152Z 00000KT 10SM BCFG OVC004 M05/M06 A2946 RMK AO2 SLP983 BCFG NW-E T10501061 $
PATA 242052Z 00000KT 5SM BR OVC004 M05/M07 A2946 RMK AO2 SLP983 T10501067 58001 $
PATA 242027Z 00000KT 10SM OVC004 M06/M07 A2947 RMK AO2 T10561067 $
PATA 241952Z 00000KT 10SM OVC007 M06/M07 A2947 RMK AO2 SLP986 DSNT CLDS OBSCR MTN NW-NE T10611072 $
PATA 241852Z 00000KT 10SM BKN009 OVC015 M07/M08 A2947 RMK AO2 SLP984 T10671083 $
PATA 241752Z 00000KT 10SM OVC012 M08/M11 A2946 RMK AO2 SLP984 DSNT CLDS OBSCR MTN NW-NE I6000 T10831106 11067 21117 51011 $
PATA 241700Z 00000KT 10SM BKN014 OVC090 M11/M13 A2946 RMK AO2 T11111133 $
PATA 241652Z 00000KT 10SM SCT014 BKN090 M12/M14 A2945 RMK AO2 SLP980 FG BNK NE-E T11171139 $
PATA 241552Z 00000KT 10SM CLR M11/M14 A2945 RMK AO2 SLP977 T11111139 $
PATA 241503Z 00000KT 10SM SCT001 M10/M13 A2943 RMK AO2 T11001128 $
PATA 241452Z 00000KT 10SM CLR M10/M13 A2943 RMK AO2 SLP972 I1000 I3000 T11001128 51011 $
PATA 241352Z 00000KT 10SM CLR M09/M12 A2942 RMK AO2 SLP970 I1000 T10941122 $
PATA 241252Z AUTO 00000KT 10SM CLR M07/M11 A2941 RMK AO2 SLP964 I1000 T10721106 TSNO $
PATA 241152Z AUTO 34003KT 10SM FEW120 M07/M09 A2940 RMK AO2 SLP960 I1000 I6000 T10721094 11017 21078 53019 TSNO $